sensor_id;sensor_type;location;lat;lon;timestamp;P1;durP1;ratioP1;P2;durP2;ratioP2
69083;SDS011;56185;48.526;9.044;2023-04-03T00:01:01;4.22;;;3.13;;
69083;SDS011;56185;48.526;9.044;2023-04-03T00:03:28;4.30;;;2.47;;
69083;SDS011;56185;48.526;9.044;2023-04-03T00:05:53;3.85;;;2.85;;
69083;SDS011;56185;48.526;9.044;2023-04-03T00:08:18;5.00;;;2.83;;
69083;SDS011;56185;48.526;9.044;2023-04-03T00:10:44;4.05;;;2.80;;
69083;SDS011;56185;48.526;9.044;2023-04-03T00:13:09;3.47;;;2.60;;
69083;SDS011;56185;48.526;9.044;2023-04-03T00:15:35;6.03;;;3.00;;
69083;SDS011;56185;48.526;9.044;2023-04-03T00:18:01;4.65;;;2.83;;
69083;SDS011;56185;48.526;9.044;2023-04-03T00:20:27;3.50;;;2.70;;
69083;SDS011;56185;48.526;9.044;2023-04-03T00:22:53;4.32;;;3.17;;
69083;SDS011;56185;48.526;9.044;2023-04-03T00:25:18;5.00;;;2.90;;
69083;SDS011;56185;48.526;9.044;2023-04-03T00:27:44;5.05;;;3.20;;
69083;SDS011;56185;48.526;9.044;2023-04-03T00:30:10;3.63;;;2.78;;
69083;SDS011;56185;48.526;9.044;2023-04-03T00:32:37;5.13;;;2.88;;
69083;SDS011;56185;48.526;9.044;2023-04-03T00:35:03;5.18;;;2.83;;
69083;SDS011;56185;48.526;9.044;2023-04-03T00:37:28;4.13;;;2.80;;
69083;SDS011;56185;48.526;9.044;2023-04-03T00:39:53;4.40;;;2.95;;
69083;SDS011;56185;48.526;9.044;2023-04-03T00:42:19;4.13;;;2.77;;
69083;SDS011;56185;48.526;9.044;2023-04-03T00:47:10;4.53;;;2.77;;
69083;SDS011;56185;48.526;9.044;2023-04-03T00:49:38;4.22;;;2.97;;
69083;SDS011;56185;48.526;9.044;2023-04-03T00:52:05;4.85;;;2.97;;
69083;SDS011;56185;48.526;9.044;2023-04-03T00:54:36;4.18;;;3.03;;
69083;SDS011;56185;48.526;9.044;2023-04-03T00:57:02;3.50;;;2.75;;
69083;SDS011;56185;48.526;9.044;2023-04-03T00:59:30;5.90;;;3.13;;
69083;SDS011;56185;48.526;9.044;2023-04-03T01:01:59;3.53;;;2.88;;
69083;SDS011;56185;48.526;9.044;2023-04-03T01:07:04;4.97;;;2.83;;
69083;SDS011;56185;48.526;9.044;2023-04-03T01:09:32;4.28;;;2.67;;
69083;SDS011;56185;48.526;9.044;2023-04-03T01:14:54;5.78;;;3.00;;
69083;SDS011;56185;48.526;9.044;2023-04-03T01:17:38;5.60;;;2.90;;
69083;SDS011;56185;48.526;9.044;2023-04-03T01:23:22;3.10;;;2.50;;
69083;SDS011;56185;48.526;9.044;2023-04-03T01:25:34;4.53;;;3.10;;
69083;SDS011;56185;48.526;9.044;2023-04-03T01:28:03;4.45;;;2.75;;
69083;SDS011;56185;48.526;9.044;2023-04-03T01:30:31;5.18;;;2.92;;
69083;SDS011;56185;48.526;9.044;2023-04-03T01:32:59;3.80;;;2.92;;
69083;SDS011;56185;48.526;9.044;2023-04-03T01:35:24;4.68;;;3.08;;
69083;SDS011;56185;48.526;9.044;2023-04-03T01:37:49;4.43;;;3.10;;
69083;SDS011;56185;48.526;9.044;2023-04-03T01:40:15;4.05;;;3.08;;
69083;SDS011;56185;48.526;9.044;2023-04-03T01:42:40;3.83;;;3.00;;
69083;SDS011;56185;48.526;9.044;2023-04-03T01:45:05;4.10;;;3.15;;
69083;SDS011;56185;48.526;9.044;2023-04-03T01:47:31;4.63;;;3.20;;
69083;SDS011;56185;48.526;9.044;2023-04-03T01:49:56;3.53;;;2.53;;
69083;SDS011;56185;48.526;9.044;2023-04-03T01:52:21;3.70;;;3.00;;
69083;SDS011;56185;48.526;9.044;2023-04-03T01:54:47;3.28;;;2.80;;
69083;SDS011;56185;48.526;9.044;2023-04-03T01:57:12;4.03;;;3.00;;
69083;SDS011;56185;48.526;9.044;2023-04-03T01:59:37;3.88;;;2.75;;
69083;SDS011;56185;48.526;9.044;2023-04-03T02:02:02;4.30;;;3.17;;
69083;SDS011;56185;48.526;9.044;2023-04-03T02:04:28;3.63;;;2.70;;
69083;SDS011;56185;48.526;9.044;2023-04-03T02:06:53;5.17;;;2.97;;
69083;SDS011;56185;48.526;9.044;2023-04-03T02:09:18;4.00;;;2.70;;
69083;SDS011;56185;48.526;9.044;2023-04-03T02:11:43;4.18;;;2.83;;
69083;SDS011;56185;48.526;9.044;2023-04-03T02:14:09;4.80;;;3.10;;
69083;SDS011;56185;48.526;9.044;2023-04-03T02:16:34;5.00;;;2.70;;
69083;SDS011;56185;48.526;9.044;2023-04-03T02:18:59;3.38;;;2.53;;
69083;SDS011;56185;48.526;9.044;2023-04-03T02:21:24;4.13;;;2.80;;
69083;SDS011;56185;48.526;9.044;2023-04-03T02:23:50;4.60;;;3.40;;
69083;SDS011;56185;48.526;9.044;2023-04-03T02:26:15;5.10;;;2.85;;
69083;SDS011;56185;48.526;9.044;2023-04-03T02:28:41;3.95;;;2.83;;
69083;SDS011;56185;48.526;9.044;2023-04-03T02:31:07;3.45;;;2.83;;
69083;SDS011;56185;48.526;9.044;2023-04-03T02:33:33;3.42;;;2.67;;
69083;SDS011;56185;48.526;9.044;2023-04-03T02:35:59;5.47;;;3.00;;
69083;SDS011;56185;48.526;9.044;2023-04-03T02:38:24;4.18;;;3.25;;
69083;SDS011;56185;48.526;9.044;2023-04-03T02:40:50;4.45;;;2.70;;
69083;SDS011;56185;48.526;9.044;2023-04-03T02:43:16;3.95;;;2.78;;
69083;SDS011;56185;48.526;9.044;2023-04-03T02:45:41;5.53;;;3.20;;
69083;SDS011;56185;48.526;9.044;2023-04-03T02:48:07;5.82;;;3.20;;
69083;SDS011;56185;48.526;9.044;2023-04-03T02:50:32;4.03;;;2.83;;
69083;SDS011;56185;48.526;9.044;2023-04-03T02:52:57;4.70;;;3.40;;
69083;SDS011;56185;48.526;9.044;2023-04-03T02:55:23;3.80;;;2.83;;
69083;SDS011;56185;48.526;9.044;2023-04-03T02:57:48;5.00;;;2.88;;
69083;SDS011;56185;48.526;9.044;2023-04-03T03:00:13;3.88;;;3.00;;
69083;SDS011;56185;48.526;9.044;2023-04-03T03:02:39;3.67;;;2.80;;
69083;SDS011;56185;48.526;9.044;2023-04-03T03:05:04;4.30;;;2.95;;
69083;SDS011;56185;48.526;9.044;2023-04-03T03:07:30;3.78;;;2.83;;
69083;SDS011;56185;48.526;9.044;2023-04-03T03:09:55;6.10;;;3.00;;
69083;SDS011;56185;48.526;9.044;2023-04-03T03:12:20;4.53;;;2.83;;
69083;SDS011;56185;48.526;9.044;2023-04-03T03:14:45;3.92;;;2.60;;
69083;SDS011;56185;48.526;9.044;2023-04-03T03:17:10;7.13;;;3.27;;
69083;SDS011;56185;48.526;9.044;2023-04-03T03:19:36;4.43;;;2.80;;
69083;SDS011;56185;48.526;9.044;2023-04-03T03:22:01;6.00;;;3.43;;
69083;SDS011;56185;48.526;9.044;2023-04-03T03:24:26;4.05;;;2.80;;
69083;SDS011;56185;48.526;9.044;2023-04-03T03:26:51;3.90;;;2.80;;
69083;SDS011;56185;48.526;9.044;2023-04-03T03:29:17;3.43;;;2.63;;
69083;SDS011;56185;48.526;9.044;2023-04-03T03:31:42;6.22;;;2.97;;
69083;SDS011;56185;48.526;9.044;2023-04-03T03:34:07;5.22;;;2.90;;
69083;SDS011;56185;48.526;9.044;2023-04-03T03:36:32;3.63;;;2.83;;
69083;SDS011;56185;48.526;9.044;2023-04-03T03:38:58;3.97;;;2.40;;
69083;SDS011;56185;48.526;9.044;2023-04-03T03:41:23;4.85;;;3.10;;
69083;SDS011;56185;48.526;9.044;2023-04-03T03:43:48;5.10;;;2.97;;
69083;SDS011;56185;48.526;9.044;2023-04-03T03:46:13;4.18;;;2.85;;
69083;SDS011;56185;48.526;9.044;2023-04-03T03:48:39;4.65;;;3.17;;
69083;SDS011;56185;48.526;9.044;2023-04-03T03:51:04;5.73;;;3.40;;
69083;SDS011;56185;48.526;9.044;2023-04-03T03:53:29;5.22;;;3.20;;
69083;SDS011;56185;48.526;9.044;2023-04-03T03:55:54;4.30;;;3.00;;
69083;SDS011;56185;48.526;9.044;2023-04-03T03:58:20;4.93;;;3.00;;
69083;SDS011;56185;48.526;9.044;2023-04-03T04:00:45;5.35;;;3.00;;
69083;SDS011;56185;48.526;9.044;2023-04-03T04:03:10;4.28;;;2.80;;
69083;SDS011;56185;48.526;9.044;2023-04-03T04:05:35;4.65;;;2.95;;
69083;SDS011;56185;48.526;9.044;2023-04-03T04:08:00;3.95;;;2.90;;
69083;SDS011;56185;48.526;9.044;2023-04-03T04:10:26;5.00;;;2.90;;
69083;SDS011;56185;48.526;9.044;2023-04-03T04:12:51;3.97;;;2.80;;
69083;SDS011;56185;48.526;9.044;2023-04-03T04:15:16;4.88;;;3.17;;
69083;SDS011;56185;48.526;9.044;2023-04-03T04:17:41;4.78;;;3.00;;
69083;SDS011;56185;48.526;9.044;2023-04-03T04:20:07;3.40;;;2.50;;
69083;SDS011;56185;48.526;9.044;2023-04-03T04:22:32;4.05;;;2.83;;
69083;SDS011;56185;48.526;9.044;2023-04-03T04:24:57;4.65;;;2.78;;
69083;SDS011;56185;48.526;9.044;2023-04-03T04:27:23;4.37;;;2.70;;
69083;SDS011;56185;48.526;9.044;2023-04-03T04:29:48;5.65;;;2.95;;
69083;SDS011;56185;48.526;9.044;2023-04-03T04:32:13;3.17;;;2.70;;
69083;SDS011;56185;48.526;9.044;2023-04-03T04:34:38;3.88;;;2.70;;
69083;SDS011;56185;48.526;9.044;2023-04-03T04:37:04;6.70;;;3.13;;
69083;SDS011;56185;48.526;9.044;2023-04-03T04:39:29;4.43;;;3.20;;
69083;SDS011;56185;48.526;9.044;2023-04-03T04:41:54;5.20;;;2.97;;
69083;SDS011;56185;48.526;9.044;2023-04-03T04:44:19;5.07;;;2.80;;
69083;SDS011;56185;48.526;9.044;2023-04-03T04:46:45;5.37;;;2.87;;
69083;SDS011;56185;48.526;9.044;2023-04-03T04:49:10;5.13;;;2.92;;
69083;SDS011;56185;48.526;9.044;2023-04-03T04:51:35;4.80;;;2.90;;
69083;SDS011;56185;48.526;9.044;2023-04-03T04:54:00;4.67;;;2.53;;
69083;SDS011;56185;48.526;9.044;2023-04-03T04:56:26;3.72;;;2.78;;
69083;SDS011;56185;48.526;9.044;2023-04-03T04:58:51;4.78;;;2.80;;
69083;SDS011;56185;48.526;9.044;2023-04-03T05:01:16;6.32;;;2.95;;
69083;SDS011;56185;48.526;9.044;2023-04-03T05:03:42;5.40;;;3.13;;
69083;SDS011;56185;48.526;9.044;2023-04-03T05:06:07;4.28;;;2.58;;
69083;SDS011;56185;48.526;9.044;2023-04-03T05:08:32;5.35;;;2.92;;
69083;SDS011;56185;48.526;9.044;2023-04-03T05:10:58;3.25;;;2.60;;
69083;SDS011;56185;48.526;9.044;2023-04-03T05:13:23;4.43;;;2.78;;
69083;SDS011;56185;48.526;9.044;2023-04-03T05:15:48;4.38;;;2.75;;
69083;SDS011;56185;48.526;9.044;2023-04-03T05:18:13;3.13;;;2.63;;
69083;SDS011;56185;48.526;9.044;2023-04-03T05:20:39;4.15;;;2.67;;
69083;SDS011;56185;48.526;9.044;2023-04-03T05:23:04;6.00;;;3.00;;
69083;SDS011;56185;48.526;9.044;2023-04-03T05:25:29;4.57;;;2.78;;
69083;SDS011;56185;48.526;9.044;2023-04-03T05:27:55;5.10;;;2.80;;
69083;SDS011;56185;48.526;9.044;2023-04-03T05:30:20;4.50;;;2.80;;
69083;SDS011;56185;48.526;9.044;2023-04-03T05:32:46;3.85;;;2.75;;
69083;SDS011;56185;48.526;9.044;2023-04-03T05:35:11;3.78;;;2.70;;
69083;SDS011;56185;48.526;9.044;2023-04-03T05:37:37;4.13;;;2.55;;
69083;SDS011;56185;48.526;9.044;2023-04-03T05:40:03;4.00;;;2.72;;
69083;SDS011;56185;48.526;9.044;2023-04-03T05:42:29;4.13;;;2.70;;
69083;SDS011;56185;48.526;9.044;2023-04-03T05:44:54;4.03;;;2.55;;
69083;SDS011;56185;48.526;9.044;2023-04-03T05:47:20;3.60;;;2.53;;
69083;SDS011;56185;48.526;9.044;2023-04-03T05:49:45;3.90;;;2.45;;
69083;SDS011;56185;48.526;9.044;2023-04-03T05:52:27;3.20;;;2.28;;
69083;SDS011;56185;48.526;9.044;2023-04-03T05:54:54;4.18;;;2.60;;
69083;SDS011;56185;48.526;9.044;2023-04-03T05:57:20;5.07;;;2.58;;
69083;SDS011;56185;48.526;9.044;2023-04-03T05:59:45;3.25;;;2.40;;
69083;SDS011;56185;48.526;9.044;2023-04-03T06:02:11;3.97;;;2.55;;
69083;SDS011;56185;48.526;9.044;2023-04-03T06:04:38;3.85;;;2.33;;
69083;SDS011;56185;48.526;9.044;2023-04-03T06:07:04;2.80;;;2.22;;
69083;SDS011;56185;48.526;9.044;2023-04-03T06:09:29;7.95;;;2.67;;
69083;SDS011;56185;48.526;9.044;2023-04-03T06:11:55;4.70;;;2.67;;
69083;SDS011;56185;48.526;9.044;2023-04-03T06:14:21;3.10;;;2.40;;
69083;SDS011;56185;48.526;9.044;2023-04-03T06:16:46;3.17;;;2.13;;
69083;SDS011;56185;48.526;9.044;2023-04-03T06:19:12;3.13;;;2.03;;
69083;SDS011;56185;48.526;9.044;2023-04-03T06:21:37;2.67;;;2.30;;
69083;SDS011;56185;48.526;9.044;2023-04-03T06:24:03;2.53;;;2.05;;
69083;SDS011;56185;48.526;9.044;2023-04-03T06:26:30;3.33;;;2.30;;
69083;SDS011;56185;48.526;9.044;2023-04-03T06:28:55;3.40;;;2.30;;
69083;SDS011;56185;48.526;9.044;2023-04-03T06:31:20;3.58;;;2.10;;
69083;SDS011;56185;48.526;9.044;2023-04-03T06:33:45;2.43;;;2.00;;
69083;SDS011;56185;48.526;9.044;2023-04-03T06:36:11;3.95;;;2.20;;
69083;SDS011;56185;48.526;9.044;2023-04-03T06:38:36;3.15;;;1.95;;
69083;SDS011;56185;48.526;9.044;2023-04-03T06:41:02;3.30;;;2.28;;
69083;SDS011;56185;48.526;9.044;2023-04-03T06:43:27;3.25;;;2.47;;
69083;SDS011;56185;48.526;9.044;2023-04-03T06:45:52;2.83;;;2.20;;
69083;SDS011;56185;48.526;9.044;2023-04-03T06:48:18;3.42;;;2.17;;
69083;SDS011;56185;48.526;9.044;2023-04-03T06:50:43;3.28;;;2.17;;
69083;SDS011;56185;48.526;9.044;2023-04-03T06:53:08;2.80;;;2.20;;
69083;SDS011;56185;48.526;9.044;2023-04-03T06:55:34;3.13;;;2.10;;
69083;SDS011;56185;48.526;9.044;2023-04-03T06:58:00;3.55;;;2.00;;
69083;SDS011;56185;48.526;9.044;2023-04-03T07:00:25;2.90;;;2.00;;
69083;SDS011;56185;48.526;9.044;2023-04-03T07:02:50;3.05;;;2.20;;
69083;SDS011;56185;48.526;9.044;2023-04-03T07:05:16;3.20;;;2.17;;
69083;SDS011;56185;48.526;9.044;2023-04-03T07:07:41;3.03;;;2.33;;
69083;SDS011;56185;48.526;9.044;2023-04-03T07:10:07;3.92;;;2.25;;
69083;SDS011;56185;48.526;9.044;2023-04-03T07:12:32;3.47;;;2.28;;
69083;SDS011;56185;48.526;9.044;2023-04-03T07:14:58;2.90;;;2.20;;
69083;SDS011;56185;48.526;9.044;2023-04-03T07:17:23;5.90;;;2.10;;
69083;SDS011;56185;48.526;9.044;2023-04-03T07:19:48;3.28;;;2.30;;
69083;SDS011;56185;48.526;9.044;2023-04-03T07:22:14;2.78;;;2.10;;
69083;SDS011;56185;48.526;9.044;2023-04-03T07:24:39;3.30;;;2.10;;
69083;SDS011;56185;48.526;9.044;2023-04-03T07:27:04;2.85;;;2.10;;
69083;SDS011;56185;48.526;9.044;2023-04-03T07:29:30;3.25;;;2.20;;
69083;SDS011;56185;48.526;9.044;2023-04-03T07:31:55;4.35;;;2.17;;
69083;SDS011;56185;48.526;9.044;2023-04-03T07:34:20;4.28;;;2.33;;
69083;SDS011;56185;48.526;9.044;2023-04-03T07:36:46;2.65;;;2.17;;
69083;SDS011;56185;48.526;9.044;2023-04-03T07:39:11;3.25;;;2.00;;
69083;SDS011;56185;48.526;9.044;2023-04-03T07:41:36;2.83;;;1.97;;
69083;SDS011;56185;48.526;9.044;2023-04-03T07:44:01;3.80;;;2.10;;
69083;SDS011;56185;48.526;9.044;2023-04-03T07:46:27;3.88;;;2.10;;
69083;SDS011;56185;48.526;9.044;2023-04-03T07:48:52;3.05;;;1.83;;
69083;SDS011;56185;48.526;9.044;2023-04-03T07:51:17;2.60;;;2.00;;
69083;SDS011;56185;48.526;9.044;2023-04-03T07:53:43;2.73;;;1.97;;
69083;SDS011;56185;48.526;9.044;2023-04-03T07:56:08;2.35;;;1.80;;
69083;SDS011;56185;48.526;9.044;2023-04-03T07:58:33;2.55;;;1.98;;
69083;SDS011;56185;48.526;9.044;2023-04-03T08:00:59;3.53;;;2.30;;
69083;SDS011;56185;48.526;9.044;2023-04-03T08:03:24;3.33;;;2.20;;
69083;SDS011;56185;48.526;9.044;2023-04-03T08:05:50;2.90;;;2.20;;
69083;SDS011;56185;48.526;9.044;2023-04-03T08:08:16;3.50;;;2.42;;
69083;SDS011;56185;48.526;9.044;2023-04-03T08:10:43;3.22;;;2.42;;
69083;SDS011;56185;48.526;9.044;2023-04-03T08:13:12;6.45;;;2.30;;
69083;SDS011;56185;48.526;9.044;2023-04-03T08:15:37;3.78;;;2.47;;
69083;SDS011;56185;48.526;9.044;2023-04-03T08:18:05;4.10;;;2.28;;
69083;SDS011;56185;48.526;9.044;2023-04-03T08:20:31;3.17;;;2.30;;
69083;SDS011;56185;48.526;9.044;2023-04-03T08:22:56;2.90;;;2.28;;
69083;SDS011;56185;48.526;9.044;2023-04-03T08:25:21;4.93;;;2.20;;
69083;SDS011;56185;48.526;9.044;2023-04-03T08:27:47;4.75;;;1.98;;
69083;SDS011;56185;48.526;9.044;2023-04-03T08:30:12;2.97;;;2.10;;
69083;SDS011;56185;48.526;9.044;2023-04-03T08:32:38;3.38;;;2.20;;
69083;SDS011;56185;48.526;9.044;2023-04-03T08:35:04;3.50;;;2.47;;
69083;SDS011;56185;48.526;9.044;2023-04-03T08:37:30;5.45;;;2.20;;
69083;SDS011;56185;48.526;9.044;2023-04-03T08:39:55;3.22;;;1.90;;
69083;SDS011;56185;48.526;9.044;2023-04-03T08:42:32;3.35;;;2.35;;
69083;SDS011;56185;48.526;9.044;2023-04-03T08:47:53;3.28;;;2.20;;
69083;SDS011;56185;48.526;9.044;2023-04-03T08:50:28;4.03;;;2.53;;
69083;SDS011;56185;48.526;9.044;2023-04-03T08:52:56;4.20;;;2.28;;
69083;SDS011;56185;48.526;9.044;2023-04-03T08:55:24;3.15;;;2.15;;
69083;SDS011;56185;48.526;9.044;2023-04-03T08:58:40;3.92;;;2.38;;
69083;SDS011;56185;48.526;9.044;2023-04-03T09:03:21;3.63;;;2.28;;
69083;SDS011;56185;48.526;9.044;2023-04-03T09:16:49;4.05;;;2.60;;
69083;SDS011;56185;48.526;9.044;2023-04-03T09:21:58;5.78;;;2.40;;
69083;SDS011;56185;48.526;9.044;2023-04-03T09:24:45;3.63;;;2.50;;
69083;SDS011;56185;48.526;9.044;2023-04-03T09:27:13;3.22;;;2.35;;
69083;SDS011;56185;48.526;9.044;2023-04-03T09:29:39;5.50;;;2.22;;
69083;SDS011;56185;48.526;9.044;2023-04-03T09:32:17;4.03;;;1.95;;
69083;SDS011;56185;48.526;9.044;2023-04-03T09:34:46;2.45;;;2.03;;
69083;SDS011;56185;48.526;9.044;2023-04-03T09:37:33;4.38;;;2.33;;
69083;SDS011;56185;48.526;9.044;2023-04-03T09:40:02;3.15;;;2.13;;
69083;SDS011;56185;48.526;9.044;2023-04-03T09:42:28;2.97;;;2.20;;
69083;SDS011;56185;48.526;9.044;2023-04-03T09:49:56;3.78;;;2.33;;
69083;SDS011;56185;48.526;9.044;2023-04-03T09:52:53;3.40;;;2.28;;
69083;SDS011;56185;48.526;9.044;2023-04-03T09:55:22;3.50;;;2.30;;
69083;SDS011;56185;48.526;9.044;2023-04-03T09:57:49;4.10;;;2.20;;
69083;SDS011;56185;48.526;9.044;2023-04-03T10:02:51;2.92;;;2.00;;
69083;SDS011;56185;48.526;9.044;2023-04-03T10:05:32;2.70;;;2.13;;
69083;SDS011;56185;48.526;9.044;2023-04-03T10:10:39;4.35;;;2.40;;
69083;SDS011;56185;48.526;9.044;2023-04-03T10:13:11;2.83;;;2.08;;
69083;SDS011;56185;48.526;9.044;2023-04-03T10:15:44;3.42;;;2.42;;
69083;SDS011;56185;48.526;9.044;2023-04-03T10:20:48;3.38;;;2.10;;
69083;SDS011;56185;48.526;9.044;2023-04-03T10:35:10;3.03;;;1.90;;
69083;SDS011;56185;48.526;9.044;2023-04-03T10:40:40;3.83;;;2.30;;
69083;SDS011;56185;48.526;9.044;2023-04-03T10:43:36;2.95;;;2.08;;
69083;SDS011;56185;48.526;9.044;2023-04-03T10:49:22;3.20;;;2.30;;
69083;SDS011;56185;48.526;9.044;2023-04-03T10:54:38;4.15;;;2.05;;
69083;SDS011;56185;48.526;9.044;2023-04-03T10:57:09;2.88;;;2.20;;
69083;SDS011;56185;48.526;9.044;2023-04-03T10:59:37;3.80;;;2.20;;
69083;SDS011;56185;48.526;9.044;2023-04-03T11:05:32;3.58;;;2.10;;
69083;SDS011;56185;48.526;9.044;2023-04-03T11:08:13;4.15;;;2.15;;
69083;SDS011;56185;48.526;9.044;2023-04-03T11:10:59;3.00;;;2.00;;
69083;SDS011;56185;48.526;9.044;2023-04-03T11:13:40;3.88;;;1.90;;
69083;SDS011;56185;48.526;9.044;2023-04-03T11:16:12;3.47;;;2.03;;
69083;SDS011;56185;48.526;9.044;2023-04-03T11:18:50;5.50;;;2.30;;
69083;SDS011;56185;48.526;9.044;2023-04-03T11:21:29;2.78;;;2.05;;
69083;SDS011;56185;48.526;9.044;2023-04-03T11:23:59;2.55;;;1.92;;
69083;SDS011;56185;48.526;9.044;2023-04-03T11:26:31;4.13;;;1.98;;
69083;SDS011;56185;48.526;9.044;2023-04-03T11:29:06;4.40;;;1.83;;
69083;SDS011;56185;48.526;9.044;2023-04-03T11:34:42;3.92;;;1.92;;
69083;SDS011;56185;48.526;9.044;2023-04-03T11:37:16;3.17;;;1.90;;
69083;SDS011;56185;48.526;9.044;2023-04-03T11:40:04;4.60;;;1.77;;
69083;SDS011;56185;48.526;9.044;2023-04-03T11:42:40;2.50;;;1.65;;
69083;SDS011;56185;48.526;9.044;2023-04-03T11:55:52;2.25;;;1.50;;
69083;SDS011;56185;48.526;9.044;2023-04-03T12:11:14;3.20;;;2.00;;
69083;SDS011;56185;48.526;9.044;2023-04-03T12:16:29;3.30;;;1.80;;
69083;SDS011;56185;48.526;9.044;2023-04-03T12:22:20;3.47;;;2.00;;
69083;SDS011;56185;48.526;9.044;2023-04-03T12:25:40;2.65;;;1.90;;
69083;SDS011;56185;48.526;9.044;2023-04-03T12:28:15;3.78;;;1.90;;
69083;SDS011;56185;48.526;9.044;2023-04-03T12:30:48;3.95;;;1.88;;
69083;SDS011;56185;48.526;9.044;2023-04-03T12:36:33;4.72;;;1.95;;
69083;SDS011;56185;48.526;9.044;2023-04-03T12:45:36;2.22;;;1.70;;
69083;SDS011;56185;48.526;9.044;2023-04-03T12:54:19;2.95;;;1.90;;
69083;SDS011;56185;48.526;9.044;2023-04-03T12:57:08;3.88;;;2.03;;
69083;SDS011;56185;48.526;9.044;2023-04-03T12:59:53;3.97;;;1.73;;
69083;SDS011;56185;48.526;9.044;2023-04-03T13:05:23;5.03;;;2.05;;
69083;SDS011;56185;48.526;9.044;2023-04-03T13:11:00;4.32;;;1.70;;
69083;SDS011;56185;48.526;9.044;2023-04-03T13:14:05;4.53;;;1.88;;
69083;SDS011;56185;48.526;9.044;2023-04-03T13:16:42;3.78;;;1.80;;
69083;SDS011;56185;48.526;9.044;2023-04-03T13:19:22;5.15;;;2.30;;
69083;SDS011;56185;48.526;9.044;2023-04-03T13:21:48;3.47;;;2.08;;
69083;SDS011;56185;48.526;9.044;2023-04-03T13:24:14;4.25;;;1.95;;
69083;SDS011;56185;48.526;9.044;2023-04-03T13:26:40;6.28;;;1.98;;
69083;SDS011;56185;48.526;9.044;2023-04-03T13:29:07;3.78;;;1.88;;
69083;SDS011;56185;48.526;9.044;2023-04-03T13:31:41;2.72;;;1.63;;
69083;SDS011;56185;48.526;9.044;2023-04-03T13:34:10;3.38;;;1.80;;
69083;SDS011;56185;48.526;9.044;2023-04-03T13:36:39;3.25;;;1.55;;
69083;SDS011;56185;48.526;9.044;2023-04-03T13:41:36;3.00;;;1.70;;
69083;SDS011;56185;48.526;9.044;2023-04-03T13:44:15;4.10;;;1.88;;
69083;SDS011;56185;48.526;9.044;2023-04-03T13:46:41;2.85;;;1.70;;
69083;SDS011;56185;48.526;9.044;2023-04-03T13:49:20;4.13;;;1.80;;
69083;SDS011;56185;48.526;9.044;2023-04-03T13:51:47;2.42;;;1.70;;
69083;SDS011;56185;48.526;9.044;2023-04-03T13:54:21;3.28;;;1.58;;
69083;SDS011;56185;48.526;9.044;2023-04-03T13:56:59;2.53;;;1.50;;
69083;SDS011;56185;48.526;9.044;2023-04-03T13:59:31;3.42;;;1.83;;
69083;SDS011;56185;48.526;9.044;2023-04-03T14:04:29;4.82;;;2.03;;
69083;SDS011;56185;48.526;9.044;2023-04-03T14:07:10;2.67;;;1.80;;
69083;SDS011;56185;48.526;9.044;2023-04-03T14:09:36;2.63;;;1.70;;
69083;SDS011;56185;48.526;9.044;2023-04-03T14:12:05;3.08;;;1.80;;
69083;SDS011;56185;48.526;9.044;2023-04-03T14:14:36;2.70;;;1.73;;
69083;SDS011;56185;48.526;9.044;2023-04-03T14:17:10;3.45;;;1.83;;
69083;SDS011;56185;48.526;9.044;2023-04-03T14:19:39;3.17;;;1.73;;
69083;SDS011;56185;48.526;9.044;2023-04-03T14:22:19;2.30;;;1.50;;
69083;SDS011;56185;48.526;9.044;2023-04-03T14:24:45;2.63;;;1.90;;
69083;SDS011;56185;48.526;9.044;2023-04-03T14:27:15;3.50;;;1.83;;
69083;SDS011;56185;48.526;9.044;2023-04-03T14:29:51;3.53;;;2.08;;
69083;SDS011;56185;48.526;9.044;2023-04-03T14:32:21;6.75;;;2.10;;
69083;SDS011;56185;48.526;9.044;2023-04-03T14:34:50;7.95;;;2.13;;
69083;SDS011;56185;48.526;9.044;2023-04-03T14:37:20;3.03;;;1.60;;
69083;SDS011;56185;48.526;9.044;2023-04-03T14:39:47;2.90;;;1.90;;
69083;SDS011;56185;48.526;9.044;2023-04-03T14:42:18;3.33;;;1.95;;
69083;SDS011;56185;48.526;9.044;2023-04-03T14:44:46;2.63;;;1.70;;
69083;SDS011;56185;48.526;9.044;2023-04-03T14:50:02;2.47;;;1.90;;
69083;SDS011;56185;48.526;9.044;2023-04-03T14:52:34;3.90;;;1.83;;
69083;SDS011;56185;48.526;9.044;2023-04-03T14:55:01;3.60;;;2.17;;
69083;SDS011;56185;48.526;9.044;2023-04-03T14:57:28;2.53;;;1.88;;
69083;SDS011;56185;48.526;9.044;2023-04-03T14:59:54;4.20;;;1.83;;
69083;SDS011;56185;48.526;9.044;2023-04-03T15:04:45;4.30;;;2.27;;
69083;SDS011;56185;48.526;9.044;2023-04-03T15:07:10;2.70;;;1.73;;
69083;SDS011;56185;48.526;9.044;2023-04-03T15:09:38;5.00;;;2.00;;
69083;SDS011;56185;48.526;9.044;2023-04-03T15:12:03;3.58;;;1.83;;
69083;SDS011;56185;48.526;9.044;2023-04-03T15:14:29;6.15;;;2.10;;
69083;SDS011;56185;48.526;9.044;2023-04-03T15:16:54;3.85;;;1.63;;
69083;SDS011;56185;48.526;9.044;2023-04-03T15:19:23;3.35;;;1.98;;
69083;SDS011;56185;48.526;9.044;2023-04-03T15:21:48;3.25;;;2.17;;
69083;SDS011;56185;48.526;9.044;2023-04-03T15:24:16;4.05;;;1.90;;
69083;SDS011;56185;48.526;9.044;2023-04-03T15:26:41;3.13;;;1.90;;
69083;SDS011;56185;48.526;9.044;2023-04-03T15:29:07;2.75;;;2.03;;
69083;SDS011;56185;48.526;9.044;2023-04-03T15:31:32;3.45;;;2.10;;
69083;SDS011;56185;48.526;9.044;2023-04-03T15:33:58;3.92;;;1.90;;
69083;SDS011;56185;48.526;9.044;2023-04-03T15:36:23;3.00;;;1.88;;
69083;SDS011;56185;48.526;9.044;2023-04-03T15:38:48;4.57;;;1.75;;
69083;SDS011;56185;48.526;9.044;2023-04-03T15:41:14;2.90;;;1.70;;
69083;SDS011;56185;48.526;9.044;2023-04-03T15:43:39;2.20;;;1.77;;
69083;SDS011;56185;48.526;9.044;2023-04-03T15:46:04;3.35;;;1.90;;
69083;SDS011;56185;48.526;9.044;2023-04-03T15:48:29;2.00;;;1.50;;
69083;SDS011;56185;48.526;9.044;2023-04-03T15:50:55;2.92;;;1.65;;
69083;SDS011;56185;48.526;9.044;2023-04-03T15:53:21;4.32;;;1.95;;
69083;SDS011;56185;48.526;9.044;2023-04-03T15:55:46;3.97;;;1.80;;
69083;SDS011;56185;48.526;9.044;2023-04-03T15:58:12;4.13;;;1.85;;
69083;SDS011;56185;48.526;9.044;2023-04-03T16:00:37;3.53;;;1.93;;
69083;SDS011;56185;48.526;9.044;2023-04-03T16:03:08;3.08;;;1.90;;
69083;SDS011;56185;48.526;9.044;2023-04-03T16:05:39;2.55;;;1.70;;
69083;SDS011;56185;48.526;9.044;2023-04-03T16:08:04;2.67;;;1.73;;
69083;SDS011;56185;48.526;9.044;2023-04-03T16:10:30;3.53;;;2.00;;
69083;SDS011;56185;48.526;9.044;2023-04-03T16:12:56;3.28;;;1.80;;
69083;SDS011;56185;48.526;9.044;2023-04-03T16:15:21;2.75;;;1.80;;
69083;SDS011;56185;48.526;9.044;2023-04-03T16:17:47;3.83;;;1.77;;
69083;SDS011;56185;48.526;9.044;2023-04-03T16:20:12;2.83;;;1.90;;
69083;SDS011;56185;48.526;9.044;2023-04-03T16:22:38;4.95;;;2.03;;
69083;SDS011;56185;48.526;9.044;2023-04-03T16:25:05;3.85;;;1.80;;
69083;SDS011;56185;48.526;9.044;2023-04-03T16:27:31;2.55;;;1.80;;
69083;SDS011;56185;48.526;9.044;2023-04-03T16:29:57;3.60;;;1.98;;
69083;SDS011;56185;48.526;9.044;2023-04-03T16:32:23;4.55;;;1.90;;
69083;SDS011;56185;48.526;9.044;2023-04-03T16:34:49;2.83;;;1.90;;
69083;SDS011;56185;48.526;9.044;2023-04-03T16:37:15;4.53;;;1.70;;
69083;SDS011;56185;48.526;9.044;2023-04-03T16:39:41;3.97;;;1.92;;
69083;SDS011;56185;48.526;9.044;2023-04-03T16:42:07;2.65;;;1.92;;
69083;SDS011;56185;48.526;9.044;2023-04-03T16:44:32;3.33;;;1.70;;
69083;SDS011;56185;48.526;9.044;2023-04-03T16:46:57;3.03;;;1.60;;
69083;SDS011;56185;48.526;9.044;2023-04-03T16:49:22;3.20;;;1.73;;
69083;SDS011;56185;48.526;9.044;2023-04-03T16:51:50;3.20;;;1.80;;
69083;SDS011;56185;48.526;9.044;2023-04-03T16:54:15;3.25;;;1.75;;
69083;SDS011;56185;48.526;9.044;2023-04-03T16:56:40;3.03;;;1.75;;
69083;SDS011;56185;48.526;9.044;2023-04-03T16:59:06;4.73;;;1.60;;
69083;SDS011;56185;48.526;9.044;2023-04-03T17:01:31;3.08;;;2.00;;
69083;SDS011;56185;48.526;9.044;2023-04-03T17:03:59;5.97;;;1.70;;